sensor_id;sensor_type;location;lat;lon;timestamp;pressure;altitude;pressure_sealevel;temperature;humidity
20079;BME280;10199;48.850;8.924;2023-12-07T00:02:06;97514.38;;;1.05;90.95
20079;BME280;10199;48.850;8.924;2023-12-07T00:04:54;97520.78;;;1.01;90.55
20079;BME280;10199;48.850;8.924;2023-12-07T00:07:42;97528.16;;;0.96;90.78
20079;BME280;10199;48.850;8.924;2023-12-07T00:10:31;97526.63;;;0.93;91.39
20079;BME280;10199;48.850;8.924;2023-12-07T00:13:20;97523.91;;;0.95;91.19
20079;BME280;10199;48.850;8.924;2023-12-07T00:16:08;97537.88;;;0.94;91.40
20079;BME280;10199;48.850;8.924;2023-12-07T00:18:56;97530.56;;;0.88;91.31
20079;BME280;10199;48.850;8.924;2023-12-07T00:21:44;97527.13;;;0.87;91.34
20079;BME280;10199;48.850;8.924;2023-12-07T00:24:33;97538.81;;;0.82;92.01
20079;BME280;10199;48.850;8.924;2023-12-07T00:27:21;97537.91;;;0.72;92.61
20079;BME280;10199;48.850;8.924;2023-12-07T00:30:11;97534.94;;;0.76;92.04
20079;BME280;10199;48.850;8.924;2023-12-07T00:32:59;97536.94;;;0.84;91.85
20079;BME280;10199;48.850;8.924;2023-12-07T00:35:48;97520.03;;;0.78;91.71
20079;BME280;10199;48.850;8.924;2023-12-07T00:38:36;97546.88;;;0.90;92.05
20079;BME280;10199;48.850;8.924;2023-12-07T00:41:24;97539.06;;;0.90;91.44
20079;BME280;10199;48.850;8.924;2023-12-07T00:44:13;97554.69;;;0.90;91.25
20079;BME280;10199;48.850;8.924;2023-12-07T00:47:03;97547.69;;;0.90;91.88
20079;BME280;10199;48.850;8.924;2023-12-07T00:49:51;97536.88;;;1.06;91.38
20079;BME280;10199;48.850;8.924;2023-12-07T00:52:39;97552.88;;;1.02;91.82
20079;BME280;10199;48.850;8.924;2023-12-07T00:55:27;97549.25;;;1.14;90.90
20079;BME280;10199;48.850;8.924;2023-12-07T00:58:15;97546.28;;;1.18;90.82
20079;BME280;10199;48.850;8.924;2023-12-07T01:01:04;97541.94;;;1.08;91.95
20079;BME280;10199;48.850;8.924;2023-12-07T01:03:53;97562.22;;;1.04;91.17
20079;BME280;10199;48.850;8.924;2023-12-07T01:06:41;97547.78;;;1.00;91.65
20079;BME280;10199;48.850;8.924;2023-12-07T01:09:30;97533.56;;;1.04;91.54
20079;BME280;10199;48.850;8.924;2023-12-07T01:12:18;97557.13;;;1.03;92.03
20079;BME280;10199;48.850;8.924;2023-12-07T01:15:07;97558.03;;;1.13;91.21
20079;BME280;10199;48.850;8.924;2023-12-07T01:17:55;97555.41;;;1.13;91.84
20079;BME280;10199;48.850;8.924;2023-12-07T01:20:45;97530.75;;;0.96;91.61
20079;BME280;10199;48.850;8.924;2023-12-07T01:23:34;97525.34;;;0.77;92.21
20079;BME280;10199;48.850;8.924;2023-12-07T01:26:23;97560.56;;;1.03;91.74
20079;BME280;10199;48.850;8.924;2023-12-07T01:29:11;97560.34;;;0.95;91.57
20079;BME280;10199;48.850;8.924;2023-12-07T01:32:00;97565.44;;;0.85;92.90
20079;BME280;10199;48.850;8.924;2023-12-07T01:34:48;97564.81;;;1.04;92.17
20079;BME280;10199;48.850;8.924;2023-12-07T01:37:38;97547.22;;;0.85;92.17
20079;BME280;10199;48.850;8.924;2023-12-07T01:40:26;97578.59;;;0.84;92.65
20079;BME280;10199;48.850;8.924;2023-12-07T01:43:14;97575.53;;;0.79;92.47
20079;BME280;10199;48.850;8.924;2023-12-07T01:46:03;97574.56;;;0.80;92.46
20079;BME280;10199;48.850;8.924;2023-12-07T01:48:52;97570.66;;;0.85;92.79
20079;BME280;10199;48.850;8.924;2023-12-07T01:51:40;97572.66;;;0.93;92.12
20079;BME280;10199;48.850;8.924;2023-12-07T01:54:30;97578.59;;;0.84;92.24
20079;BME280;10199;48.850;8.924;2023-12-07T01:57:19;97493.06;;;0.36;92.04
20079;BME280;10199;48.850;8.924;2023-12-07T02:00:08;97546.94;;;0.56;92.76
20079;BME280;10199;48.850;8.924;2023-12-07T02:02:57;97586.28;;;0.85;92.48
20079;BME280;10199;48.850;8.924;2023-12-07T02:05:47;96623.19;;;-5.00;91.96
20079;BME280;10199;48.850;8.924;2023-12-07T02:08:36;97504.03;;;0.51;92.50
20079;BME280;10199;48.850;8.924;2023-12-07T02:11:29;97584.19;;;0.68;93.19
20079;BME280;10199;48.850;8.924;2023-12-07T02:14:17;97393.56;;;-0.65;94.13
20079;BME280;10199;48.850;8.924;2023-12-07T02:17:14;97574.50;;;0.59;94.16
20079;BME280;10199;48.850;8.924;2023-12-07T02:20:09;97575.09;;;0.51;94.14
20079;BME280;10199;48.850;8.924;2023-12-07T02:23:01;97557.38;;;0.45;94.70
20079;BME280;10199;48.850;8.924;2023-12-07T02:25:52;97575.59;;;0.45;95.01
20079;BME280;10199;48.850;8.924;2023-12-07T02:28:42;97553.13;;;0.33;94.71
20079;BME280;10199;48.850;8.924;2023-12-07T02:31:30;97454.72;;;-0.27;94.54
20079;BME280;10199;48.850;8.924;2023-12-07T02:34:18;97566.34;;;0.52;94.45
20079;BME280;10199;48.850;8.924;2023-12-07T02:37:07;97576.75;;;0.63;93.94
20079;BME280;10199;48.850;8.924;2023-12-07T02:39:56;97551.91;;;0.59;93.35
20079;BME280;10199;48.850;8.924;2023-12-07T02:42:45;97578.63;;;0.61;93.95
20079;BME280;10199;48.850;8.924;2023-12-07T02:45:36;97569.06;;;0.62;93.93
20079;BME280;10199;48.850;8.924;2023-12-07T02:48:24;97556.09;;;0.40;94.43
20079;BME280;10199;48.850;8.924;2023-12-07T02:51:13;97568.94;;;0.63;93.80
20079;BME280;10199;48.850;8.924;2023-12-07T02:54:01;97567.28;;;0.62;94.34
20079;BME280;10199;48.850;8.924;2023-12-07T02:56:49;97568.28;;;0.39;95.20
20079;BME280;10199;48.850;8.924;2023-12-07T02:59:37;97570.38;;;0.56;94.54
20079;BME280;10199;48.850;8.924;2023-12-07T03:02:27;97441.63;;;-0.37;95.03
20079;BME280;10199;48.850;8.924;2023-12-07T03:05:15;97576.91;;;0.28;95.88
20079;BME280;10199;48.850;8.924;2023-12-07T03:08:06;97580.22;;;0.42;95.67
20079;BME280;10199;48.850;8.924;2023-12-07T03:10:54;97561.28;;;0.51;94.48
20079;BME280;10199;48.850;8.924;2023-12-07T03:13:42;97575.94;;;0.52;95.22
20079;BME280;10199;48.850;8.924;2023-12-07T03:16:31;97573.09;;;0.55;94.48
20079;BME280;10199;48.850;8.924;2023-12-07T03:19:20;97578.31;;;0.32;95.35
20079;BME280;10199;48.850;8.924;2023-12-07T03:22:08;97573.59;;;0.38;96.03
20079;BME280;10199;48.850;8.924;2023-12-07T03:24:56;97578.22;;;0.34;95.57
20079;BME280;10199;48.850;8.924;2023-12-07T03:27:45;97538.97;;;0.15;94.96
20079;BME280;10199;48.850;8.924;2023-12-07T03:30:33;97577.84;;;0.39;94.67
20079;BME280;10199;48.850;8.924;2023-12-07T03:33:21;97574.19;;;0.08;95.85
20079;BME280;10199;48.850;8.924;2023-12-07T03:36:12;97583.97;;;-0.07;96.67
20079;BME280;10199;48.850;8.924;2023-12-07T03:39:00;97585.06;;;0.02;96.97
20079;BME280;10199;48.850;8.924;2023-12-07T03:41:50;97581.19;;;0.07;96.62
20079;BME280;10199;48.850;8.924;2023-12-07T03:44:38;97521.69;;;-0.53;96.37
20079;BME280;10199;48.850;8.924;2023-12-07T03:47:26;97585.06;;;0.13;95.97
20079;BME280;10199;48.850;8.924;2023-12-07T03:50:15;97584.22;;;-0.10;97.18
20079;BME280;10199;48.850;8.924;2023-12-07T03:53:04;97583.53;;;0.10;96.77
20079;BME280;10199;48.850;8.924;2023-12-07T03:55:52;97590.50;;;0.10;96.27
20079;BME280;10199;48.850;8.924;2023-12-07T03:58:40;97573.38;;;0.07;95.99
20079;BME280;10199;48.850;8.924;2023-12-07T04:01:29;97595.00;;;0.08;96.20
20079;BME280;10199;48.850;8.924;2023-12-07T04:04:17;97592.63;;;0.05;96.57
20079;BME280;10199;48.850;8.924;2023-12-07T04:07:06;97594.47;;;-0.20;97.10
20079;BME280;10199;48.850;8.924;2023-12-07T04:09:55;97589.06;;;-0.06;97.04
20079;BME280;10199;48.850;8.924;2023-12-07T04:12:44;97598.03;;;-0.21;97.04
20079;BME280;10199;48.850;8.924;2023-12-07T04:15:32;97595.19;;;-0.18;97.48
20079;BME280;10199;48.850;8.924;2023-12-07T04:18:20;97600.13;;;-0.37;98.09
20079;BME280;10199;48.850;8.924;2023-12-07T04:21:08;97593.16;;;-0.25;97.81
20079;BME280;10199;48.850;8.924;2023-12-07T04:23:56;97603.94;;;-0.19;97.85
20079;BME280;10199;48.850;8.924;2023-12-07T04:26:46;97602.28;;;-0.20;98.07
20079;BME280;10199;48.850;8.924;2023-12-07T04:29:36;97601.94;;;-0.15;96.93
20079;BME280;10199;48.850;8.924;2023-12-07T04:32:24;97609.13;;;-0.19;96.12
20079;BME280;10199;48.850;8.924;2023-12-07T04:35:12;97607.56;;;-0.33;97.49
20079;BME280;10199;48.850;8.924;2023-12-07T04:38:01;97604.22;;;-0.46;97.36
20079;BME280;10199;48.850;8.924;2023-12-07T04:40:49;97604.47;;;-0.49;97.97
20079;BME280;10199;48.850;8.924;2023-12-07T04:43:39;97409.66;;;-1.64;97.22
20079;BME280;10199;48.850;8.924;2023-12-07T04:46:27;97606.31;;;-0.62;98.39
20079;BME280;10199;48.850;8.924;2023-12-07T04:49:15;97610.38;;;-0.47;97.47
20079;BME280;10199;48.850;8.924;2023-12-07T04:52:04;97608.00;;;-0.50;97.91
20079;BME280;10199;48.850;8.924;2023-12-07T04:54:52;97590.00;;;-0.64;98.19
20079;BME280;10199;48.850;8.924;2023-12-07T04:57:40;97611.41;;;-0.60;98.33
20079;BME280;10199;48.850;8.924;2023-12-07T05:00:29;97616.13;;;-0.54;97.30
20079;BME280;10199;48.850;8.924;2023-12-07T05:03:18;97596.88;;;-0.63;97.53
20079;BME280;10199;48.850;8.924;2023-12-07T05:06:06;97616.84;;;-0.52;97.05
20079;BME280;10199;48.850;8.924;2023-12-07T05:08:55;97619.34;;;-0.51;97.19
20079;BME280;10199;48.850;8.924;2023-12-07T05:11:43;97614.38;;;-0.54;97.34
20079;BME280;10199;48.850;8.924;2023-12-07T05:14:32;97610.91;;;-0.66;97.73
20079;BME280;10199;48.850;8.924;2023-12-07T05:17:23;97602.13;;;-0.76;97.71
20079;BME280;10199;48.850;8.924;2023-12-07T05:20:11;97625.50;;;-0.76;97.20
20079;BME280;10199;48.850;8.924;2023-12-07T05:23:00;97600.41;;;-0.88;97.10
20079;BME280;10199;48.850;8.924;2023-12-07T05:25:48;97627.88;;;-0.73;97.16
20079;BME280;10199;48.850;8.924;2023-12-07T05:28:36;97609.34;;;-0.92;97.54
20079;BME280;10199;48.850;8.924;2023-12-07T05:31:25;97623.72;;;-0.75;96.69
20079;BME280;10199;48.850;8.924;2023-12-07T05:34:15;97621.69;;;-0.83;96.75
20079;BME280;10199;48.850;8.924;2023-12-07T05:37:03;97619.81;;;-0.81;96.82
20079;BME280;10199;48.850;8.924;2023-12-07T05:39:52;97604.38;;;-0.95;96.88
20079;BME280;10199;48.850;8.924;2023-12-07T05:42:40;97616.41;;;-0.46;96.76
20079;BME280;10199;48.850;8.924;2023-12-07T05:45:28;97618.88;;;-0.80;96.46
20079;BME280;10199;48.850;8.924;2023-12-07T05:48:16;97587.94;;;-1.07;96.80
20079;BME280;10199;48.850;8.924;2023-12-07T05:51:12;97615.56;;;-0.82;96.69
20079;BME280;10199;48.850;8.924;2023-12-07T05:54:00;97637.16;;;-0.81;95.88
20079;BME280;10199;48.850;8.924;2023-12-07T05:56:48;97468.13;;;-1.96;96.32
20079;BME280;10199;48.850;8.924;2023-12-07T05:59:37;97595.66;;;-0.94;96.04
20079;BME280;10199;48.850;8.924;2023-12-07T06:02:25;97585.41;;;-1.19;95.83
20079;BME280;10199;48.850;8.924;2023-12-07T06:05:14;97617.91;;;-1.03;96.16
20079;BME280;10199;48.850;8.924;2023-12-07T06:08:04;97627.25;;;-1.00;95.89
20079;BME280;10199;48.850;8.924;2023-12-07T06:10:52;97631.63;;;-1.01;96.68
20079;BME280;10199;48.850;8.924;2023-12-07T06:13:41;97625.38;;;-0.98;95.78
20079;BME280;10199;48.850;8.924;2023-12-07T06:16:29;97544.59;;;-1.41;95.76
20079;BME280;10199;48.850;8.924;2023-12-07T06:19:17;97549.25;;;-1.34;95.40
20079;BME280;10199;48.850;8.924;2023-12-07T06:22:06;97623.81;;;-1.01;95.51
20079;BME280;10199;48.850;8.924;2023-12-07T06:24:55;97622.28;;;-1.03;96.12
20079;BME280;10199;48.850;8.924;2023-12-07T06:27:43;97620.56;;;-1.15;95.76
20079;BME280;10199;48.850;8.924;2023-12-07T06:30:32;97506.22;;;-2.09;95.92
20079;BME280;10199;48.850;8.924;2023-12-07T06:33:20;97621.19;;;-1.12;96.26
20079;BME280;10199;48.850;8.924;2023-12-07T06:36:08;97529.97;;;-1.66;95.70
20079;BME280;10199;48.850;8.924;2023-12-07T06:38:57;97618.75;;;-1.02;95.72
20079;BME280;10199;48.850;8.924;2023-12-07T06:41:47;97629.78;;;-1.11;95.51
20079;BME280;10199;48.850;8.924;2023-12-07T06:44:35;97652.31;;;-1.12;95.96
20079;BME280;10199;48.850;8.924;2023-12-07T06:47:23;97629.56;;;-1.08;94.68
20079;BME280;10199;48.850;8.924;2023-12-07T06:50:11;97618.91;;;-1.16;95.90
20079;BME280;10199;48.850;8.924;2023-12-07T06:53:00;97624.44;;;-1.21;95.61
20079;BME280;10199;48.850;8.924;2023-12-07T06:55:48;97509.81;;;-1.99;95.02
20079;BME280;10199;48.850;8.924;2023-12-07T06:58:37;97631.66;;;-1.13;95.80
20079;BME280;10199;48.850;8.924;2023-12-07T07:01:25;97636.03;;;-1.14;95.13
20079;BME280;10199;48.850;8.924;2023-12-07T07:04:13;97629.78;;;-1.11;95.65
20079;BME280;10199;48.850;8.924;2023-12-07T07:07:03;97636.97;;;-1.15;95.45
20079;BME280;10199;48.850;8.924;2023-12-07T07:09:51;97630.56;;;-0.98;94.65
20079;BME280;10199;48.850;8.924;2023-12-07T07:12:39;97523.22;;;-1.69;94.41
20079;BME280;10199;48.850;8.924;2023-12-07T07:15:29;97629.75;;;-0.99;94.20
20079;BME280;10199;48.850;8.924;2023-12-07T07:18:17;97618.59;;;-0.64;93.04
20079;BME280;10199;48.850;8.924;2023-12-07T07:21:06;97623.03;;;0.15;88.86
20079;BME280;10199;48.850;8.924;2023-12-07T07:23:54;97562.13;;;0.29;85.54
20079;BME280;10199;48.850;8.924;2023-12-07T07:26:43;97625.13;;;1.20;82.82
20079;BME280;10199;48.850;8.924;2023-12-07T07:29:31;97625.13;;;1.73;80.67
20079;BME280;10199;48.850;8.924;2023-12-07T07:32:21;97619.25;;;1.07;82.10
20079;BME280;10199;48.850;8.924;2023-12-07T07:35:10;97598.66;;;1.57;80.70
20079;BME280;10199;48.850;8.924;2023-12-07T07:37:59;97618.13;;;2.15;77.51
20079;BME280;10199;48.850;8.924;2023-12-07T07:40:47;97630.72;;;2.71;76.90
20079;BME280;10199;48.850;8.924;2023-12-07T07:43:35;97614.44;;;2.18;77.95
20079;BME280;10199;48.850;8.924;2023-12-07T07:46:24;97623.38;;;3.05;74.65
20079;BME280;10199;48.850;8.924;2023-12-07T07:49:14;97630.16;;;3.27;74.09
20079;BME280;10199;48.850;8.924;2023-12-07T07:52:02;97629.47;;;3.35;73.31
20079;BME280;10199;48.850;8.924;2023-12-07T07:54:51;97636.13;;;2.89;75.47
20079;BME280;10199;48.850;8.924;2023-12-07T07:57:40;97607.31;;;3.39;72.29
20079;BME280;10199;48.850;8.924;2023-12-07T08:00:28;97580.75;;;3.63;71.57
20079;BME280;10199;48.850;8.924;2023-12-07T08:03:16;97638.19;;;4.30;70.87
20079;BME280;10199;48.850;8.924;2023-12-07T08:06:06;97566.56;;;3.75;69.15
20079;BME280;10199;48.850;8.924;2023-12-07T08:08:55;97640.31;;;3.98;69.83
20079;BME280;10199;48.850;8.924;2023-12-07T08:11:43;97632.19;;;4.57;69.37
20079;BME280;10199;48.850;8.924;2023-12-07T08:14:31;97628.41;;;4.69;67.33
20079;BME280;10199;48.850;8.924;2023-12-07T08:17:20;97630.66;;;4.08;69.22
20079;BME280;10199;48.850;8.924;2023-12-07T08:20:09;97635.47;;;4.59;68.51
20079;BME280;10199;48.850;8.924;2023-12-07T08:22:59;97631.59;;;4.63;68.89
20079;BME280;10199;48.850;8.924;2023-12-07T08:25:47;97636.25;;;5.24;67.20
20079;BME280;10199;48.850;8.924;2023-12-07T08:28:36;97647.84;;;4.20;71.05
20079;BME280;10199;48.850;8.924;2023-12-07T08:31:24;97647.13;;;4.37;69.94
20079;BME280;10199;48.850;8.924;2023-12-07T08:34:12;97607.88;;;4.92;67.86
20079;BME280;10199;48.850;8.924;2023-12-07T08:37:00;97638.44;;;4.74;67.55
20079;BME280;10199;48.850;8.924;2023-12-07T08:39:51;97626.75;;;5.13;66.67
20079;BME280;10199;48.850;8.924;2023-12-07T08:42:39;97621.50;;;4.41;67.71
20079;BME280;10199;48.850;8.924;2023-12-07T08:45:27;97592.25;;;4.45;68.13
20079;BME280;10199;48.850;8.924;2023-12-07T08:48:16;97612.81;;;4.68;68.52
20079;BME280;10199;48.850;8.924;2023-12-07T08:51:04;97600.75;;;6.09;64.54
20079;BME280;10199;48.850;8.924;2023-12-07T08:53:52;97576.84;;;5.33;65.03
20079;BME280;10199;48.850;8.924;2023-12-07T08:56:45;97577.00;;;6.53;62.50
20079;BME280;10199;48.850;8.924;2023-12-07T08:59:33;97583.56;;;5.53;64.64
20079;BME280;10199;48.850;8.924;2023-12-07T09:02:21;97525.56;;;5.82;63.49
20079;BME280;10199;48.850;8.924;2023-12-07T09:05:15;97594.34;;;6.37;63.70
20079;BME280;10199;48.850;8.924;2023-12-07T09:08:03;97576.59;;;6.31;63.78
20079;BME280;10199;48.850;8.924;2023-12-07T09:10:52;97223.56;;;4.83;63.38
20079;BME280;10199;48.850;8.924;2023-12-07T09:13:41;97492.69;;;6.30;62.55
20079;BME280;10199;48.850;8.924;2023-12-07T09:16:29;97593.31;;;5.43;65.57
20079;BME280;10199;48.850;8.924;2023-12-07T09:19:18;97566.91;;;5.62;64.47
20079;BME280;10199;48.850;8.924;2023-12-07T09:22:06;97556.16;;;5.30;65.31
20079;BME280;10199;48.850;8.924;2023-12-07T09:24:54;97569.25;;;6.85;61.85
20079;BME280;10199;48.850;8.924;2023-12-07T09:27:43;97584.28;;;6.67;61.89
20079;BME280;10199;48.850;8.924;2023-12-07T09:30:32;97561.38;;;6.43;64.03
20079;BME280;10199;48.850;8.924;2023-12-07T09:33:21;97566.50;;;5.93;64.22
20079;BME280;10199;48.850;8.924;2023-12-07T09:36:09;97580.59;;;6.44;62.22
20079;BME280;10199;48.850;8.924;2023-12-07T09:38:58;97586.84;;;5.20;64.84
20079;BME280;10199;48.850;8.924;2023-12-07T09:41:46;97516.88;;;5.38;65.06
20079;BME280;10199;48.850;8.924;2023-12-07T09:44:35;97583.44;;;6.24;63.23
20079;BME280;10199;48.850;8.924;2023-12-07T09:47:25;97578.97;;;6.93;60.78
20079;BME280;10199;48.850;8.924;2023-12-07T09:50:17;97561.69;;;6.90;60.44
20079;BME280;10199;48.850;8.924;2023-12-07T09:53:08;97577.59;;;7.72;57.09
20079;BME280;10199;48.850;8.924;2023-12-07T09:55:56;97579.72;;;6.69;60.58
20079;BME280;10199;48.850;8.924;2023-12-07T09:58:44;97579.03;;;7.09;59.86
20079;BME280;10199;48.850;8.924;2023-12-07T10:01:33;97552.25;;;7.87;57.73
20079;BME280;10199;48.850;8.924;2023-12-07T10:04:23;97556.53;;;7.31;57.20
20079;BME280;10199;48.850;8.924;2023-12-07T10:07:13;97551.09;;;5.98;61.49
20079;BME280;10199;48.850;8.924;2023-12-07T10:10:01;97542.72;;;5.76;60.99
20079;BME280;10199;48.850;8.924;2023-12-07T10:12:52;97537.44;;;5.68;62.52
20079;BME280;10199;48.850;8.924;2023-12-07T10:15:40;97550.25;;;4.65;67.85
20079;BME280;10199;48.850;8.924;2023-12-07T10:18:29;97546.00;;;4.82;65.40
20079;BME280;10199;48.850;8.924;2023-12-07T10:21:31;97461.34;;;3.25;65.99
20079;BME280;10199;48.850;8.924;2023-12-07T10:24:21;97545.94;;;4.46;67.59
20079;BME280;10199;48.850;8.924;2023-12-07T10:27:09;97537.13;;;4.47;64.72
20079;BME280;10199;48.850;8.924;2023-12-07T10:29:58;97533.88;;;4.98;67.33
20079;BME280;10199;48.850;8.924;2023-12-07T10:32:47;97530.75;;;3.75;66.64
20079;BME280;10199;48.850;8.924;2023-12-07T10:35:38;97534.63;;;3.71;65.79
20079;BME280;10199;48.850;8.924;2023-12-07T10:38:28;97514.25;;;3.75;68.94
20079;BME280;10199;48.850;8.924;2023-12-07T10:41:20;97539.94;;;4.36;66.42
20079;BME280;10199;48.850;8.924;2023-12-07T10:44:11;97454.06;;;3.28;66.47
20079;BME280;10199;48.850;8.924;2023-12-07T10:47:01;97521.38;;;4.20;66.78
20079;BME280;10199;48.850;8.924;2023-12-07T10:49:52;97523.47;;;4.16;66.67
20079;BME280;10199;48.850;8.924;2023-12-07T10:52:45;97527.50;;;3.64;67.69
20079;BME280;10199;48.850;8.924;2023-12-07T10:55:40;97524.59;;;3.67;66.28
20079;BME280;10199;48.850;8.924;2023-12-07T10:58:34;97476.91;;;4.10;66.53
20079;BME280;10199;48.850;8.924;2023-12-07T11:01:25;97505.75;;;4.28;68.14
20079;BME280;10199;48.850;8.924;2023-12-07T11:04:14;97495.66;;;3.78;67.75
20079;BME280;10199;48.850;8.924;2023-12-07T11:07:05;97490.78;;;4.47;65.26
20079;BME280;10199;48.850;8.924;2023-12-07T11:10:01;97480.09;;;3.76;67.80
20079;BME280;10199;48.850;8.924;2023-12-07T11:12:56;97482.59;;;3.68;66.14
20079;BME280;10199;48.850;8.924;2023-12-07T11:15:48;97476.44;;;4.24;68.70
20079;BME280;10199;48.850;8.924;2023-12-07T11:18:36;97446.38;;;5.17;66.59
20079;BME280;10199;48.850;8.924;2023-12-07T11:21:25;97465.88;;;5.15;66.79
20079;BME280;10199;48.850;8.924;2023-12-07T11:24:16;97445.66;;;4.36;66.09
20079;BME280;10199;48.850;8.924;2023-12-07T11:27:04;97447.75;;;5.47;65.88
20079;BME280;10199;48.850;8.924;2023-12-07T11:29:54;97309.84;;;2.30;66.80
20079;BME280;10199;48.850;8.924;2023-12-07T11:32:43;97442.31;;;4.16;68.23
20079;BME280;10199;48.850;8.924;2023-12-07T11:35:33;97444.78;;;4.80;68.60
20079;BME280;10199;48.850;8.924;2023-12-07T11:38:21;97432.75;;;4.70;68.82
20079;BME280;10199;48.850;8.924;2023-12-07T11:41:09;97446.13;;;4.49;69.48
20079;BME280;10199;48.850;8.924;2023-12-07T11:43:58;97416.13;;;4.43;68.82
20079;BME280;10199;48.850;8.924;2023-12-07T11:46:48;97403.38;;;4.84;68.19
20079;BME280;10199;48.850;8.924;2023-12-07T11:49:36;97415.34;;;4.33;66.55
20079;BME280;10199;48.850;8.924;2023-12-07T11:52:25;97406.63;;;4.42;66.60
20079;BME280;10199;48.850;8.924;2023-12-07T11:55:13;97410.13;;;4.69;66.53
20079;BME280;10199;48.850;8.924;2023-12-07T11:58:01;97376.69;;;4.63;68.44
20079;BME280;10199;48.850;8.924;2023-12-07T12:00:51;97390.69;;;4.36;66.07
20079;BME280;10199;48.850;8.924;2023-12-07T12:03:42;97396.28;;;4.41;66.18
20079;BME280;10199;48.850;8.924;2023-12-07T12:06:31;97383.09;;;4.33;63.25
20079;BME280;10199;48.850;8.924;2023-12-07T12:09:19;97378.00;;;4.31;66.07
20079;BME280;10199;48.850;8.924;2023-12-07T12:12:09;97380.34;;;4.34;66.94
20079;BME280;10199;48.850;8.924;2023-12-07T12:14:57;97382.00;;;4.35;61.27
20079;BME280;10199;48.850;8.924;2023-12-07T12:17:46;97376.09;;;4.51;57.78
20079;BME280;10199;48.850;8.924;2023-12-07T12:20:35;97262.91;;;3.41;56.07
20079;BME280;10199;48.850;8.924;2023-12-07T12:23:23;97363.97;;;4.50;57.01
20079;BME280;10199;48.850;8.924;2023-12-07T12:26:12;97367.84;;;4.64;55.77
20079;BME280;10199;48.850;8.924;2023-12-07T12:29:00;97339.94;;;4.55;56.66
20079;BME280;10199;48.850;8.924;2023-12-07T12:31:48;97344.75;;;4.85;56.65
20079;BME280;10199;48.850;8.924;2023-12-07T12:34:36;97338.56;;;4.68;57.55
20079;BME280;10199;48.850;8.924;2023-12-07T12:37:26;97309.66;;;3.99;56.64
20079;BME280;10199;48.850;8.924;2023-12-07T12:40:16;97333.88;;;4.19;55.96
20079;BME280;10199;48.850;8.924;2023-12-07T12:43:05;97222.47;;;3.80;56.16
20079;BME280;10199;48.850;8.924;2023-12-07T12:45:53;97242.13;;;3.67;56.22
20079;BME280;10199;48.850;8.924;2023-12-07T12:48:55;97336.13;;;4.31;56.45
20079;BME280;10199;48.850;8.924;2023-12-07T12:51:44;97295.19;;;4.30;56.87
20079;BME280;10199;48.850;8.924;2023-12-07T12:54:33;97323.63;;;4.61;56.94
20079;BME280;10199;48.850;8.924;2023-12-07T12:57:22;97341.66;;;4.28;55.66
20079;BME280;10199;48.850;8.924;2023-12-07T13:00:12;97317.63;;;4.33;54.64
20079;BME280;10199;48.850;8.924;2023-12-07T13:03:03;97318.75;;;4.12;56.01
20079;BME280;10199;48.850;8.924;2023-12-07T13:05:52;97314.47;;;4.65;56.82
20079;BME280;10199;48.850;8.924;2023-12-07T13:08:40;97312.16;;;4.62;56.86
20079;BME280;10199;48.850;8.924;2023-12-07T13:11:30;97316.41;;;4.37;55.37
20079;BME280;10199;48.850;8.924;2023-12-07T13:14:18;97315.47;;;4.10;55.47
20079;BME280;10199;48.850;8.924;2023-12-07T13:17:06;97309.88;;;4.23;55.46
20079;BME280;10199;48.850;8.924;2023-12-07T13:19:55;97307.56;;;4.02;54.64
20079;BME280;10199;48.850;8.924;2023-12-07T13:22:43;97314.81;;;4.26;55.50
20079;BME280;10199;48.850;8.924;2023-12-07T13:25:31;97283.03;;;3.86;56.66
20079;BME280;10199;48.850;8.924;2023-12-07T13:28:21;97246.31;;;3.60;55.85
20079;BME280;10199;48.850;8.924;2023-12-07T13:31:10;97263.50;;;3.62;55.89
20079;BME280;10199;48.850;8.924;2023-12-07T13:33:58;97322.50;;;3.92;56.12
20079;BME280;10199;48.850;8.924;2023-12-07T13:36:46;97313.44;;;3.87;56.50
20079;BME280;10199;48.850;8.924;2023-12-07T13:39:35;97317.84;;;3.86;56.24
20079;BME280;10199;48.850;8.924;2023-12-07T13:42:24;97289.16;;;3.76;57.69
20079;BME280;10199;48.850;8.924;2023-12-07T13:45:14;97281.22;;;3.86;56.86
20079;BME280;10199;48.850;8.924;2023-12-07T13:48:03;97294.25;;;4.13;57.03
20079;BME280;10199;48.850;8.924;2023-12-07T13:50:51;97298.50;;;3.97;57.56
20079;BME280;10199;48.850;8.924;2023-12-07T13:53:39;97279.06;;;3.81;58.34
20079;BME280;10199;48.850;8.924;2023-12-07T13:56:27;97298.34;;;3.98;58.24
20079;BME280;10199;48.850;8.924;2023-12-07T13:59:16;97299.63;;;4.12;58.62
20079;BME280;10199;48.850;8.924;2023-12-07T14:02:05;97295.28;;;3.85;58.08
20079;BME280;10199;48.850;8.924;2023-12-07T14:04:53;97298.44;;;4.06;59.01
20079;BME280;10199;48.850;8.924;2023-12-07T14:07:41;97303.13;;;3.85;58.87
20079;BME280;10199;48.850;8.924;2023-12-07T14:10:30;97304.41;;;3.81;60.12
20079;BME280;10199;48.850;8.924;2023-12-07T14:13:49;97202.44;;;3.08;59.31
20079;BME280;10199;48.850;8.924;2023-12-07T14:16:45;97297.50;;;3.62;60.05
20079;BME280;10199;48.850;8.924;2023-12-07T14:19:38;97293.22;;;3.61;60.49
20079;BME280;10199;48.850;8.924;2023-12-07T14:22:26;97280.50;;;3.48;60.47
20079;BME280;10199;48.850;8.924;2023-12-07T14:25:14;97261.63;;;3.27;60.96
20079;BME280;10199;48.850;8.924;2023-12-07T14:28:04;97293.31;;;3.42;61.54
20079;BME280;10199;48.850;8.924;2023-12-07T14:30:52;97298.75;;;3.31;61.30
20079;BME280;10199;48.850;8.924;2023-12-07T14:33:43;97282.66;;;3.26;61.97
20079;BME280;10199;48.850;8.924;2023-12-07T14:36:33;97291.09;;;3.19;62.27
20079;BME280;10199;48.850;8.924;2023-12-07T14:39:21;97142.16;;;2.28;63.02
20079;BME280;10199;48.850;8.924;2023-12-07T14:42:09;97262.13;;;3.03;63.28
20079;BME280;10199;48.850;8.924;2023-12-07T14:44:57;97246.66;;;2.92;64.41
20079;BME280;10199;48.850;8.924;2023-12-07T14:47:45;97221.56;;;2.72;64.59
20079;BME280;10199;48.850;8.924;2023-12-07T14:50:34;97041.88;;;1.56;64.02
20079;BME280;10199;48.850;8.924;2023-12-07T14:53:23;97233.13;;;2.69;64.92
20079;BME280;10199;48.850;8.924;2023-12-07T14:56:11;97254.28;;;2.76;66.26
20079;BME280;10199;48.850;8.924;2023-12-07T14:59:00;97255.59;;;2.90;67.15
20079;BME280;10199;48.850;8.924;2023-12-07T15:01:48;97253.19;;;2.59;66.89
20079;BME280;10199;48.850;8.924;2023-12-07T15:04:37;97237.56;;;2.49;67.61